sensor_id;sensor_type;location;lat;lon;timestamp;pressure;altitude;pressure_sealevel;temperature
6498;BMP280;3282;48.358;10.958;2022-11-15T00:01:00;96132.69;;;6.16
6498;BMP280;3282;48.358;10.958;2022-11-15T00:03:45;96131.91;;;6.16
6498;BMP280;3282;48.358;10.958;2022-11-15T00:06:30;96128.47;;;6.15
6498;BMP280;3282;48.358;10.958;2022-11-15T00:09:16;96129.13;;;6.12
6498;BMP280;3282;48.358;10.958;2022-11-15T00:12:01;96116.91;;;5.99
6498;BMP280;3282;48.358;10.958;2022-11-15T00:14:46;96114.25;;;5.99
6498;BMP280;3282;48.358;10.958;2022-11-15T00:17:31;96108.03;;;5.94
6498;BMP280;3282;48.358;10.958;2022-11-15T00:20:17;96073.91;;;5.72
6498;BMP280;3282;48.358;10.958;2022-11-15T00:23:05;96101.97;;;5.94
6498;BMP280;3282;48.358;10.958;2022-11-15T00:25:57;96065.25;;;5.62
6498;BMP280;3282;48.358;10.958;2022-11-15T00:28:43;96102.19;;;5.89
6498;BMP280;3282;48.358;10.958;2022-11-15T00:31:28;96103.03;;;5.80
6498;BMP280;3282;48.358;10.958;2022-11-15T00:34:13;96101.88;;;5.69
6498;BMP280;3282;48.358;10.958;2022-11-15T00:36:58;96104.47;;;5.78
6498;BMP280;3282;48.358;10.958;2022-11-15T00:39:43;96108.84;;;5.74
6498;BMP280;3282;48.358;10.958;2022-11-15T00:42:28;96098.22;;;5.74
6498;BMP280;3282;48.358;10.958;2022-11-15T00:45:13;96076.06;;;5.57
6498;BMP280;3282;48.358;10.958;2022-11-15T00:47:59;96089.06;;;5.71
6498;BMP280;3282;48.358;10.958;2022-11-15T00:50:43;96095.34;;;5.66
6498;BMP280;3282;48.358;10.958;2022-11-15T00:53:28;96073.41;;;5.57
6498;BMP280;3282;48.358;10.958;2022-11-15T00:56:14;96085.66;;;5.70
6498;BMP280;3282;48.358;10.958;2022-11-15T00:58:59;96083.84;;;5.75
6498;BMP280;3282;48.358;10.958;2022-11-15T01:01:44;96093.84;;;5.78
6498;BMP280;3282;48.358;10.958;2022-11-15T01:04:29;96079.31;;;5.75
6498;BMP280;3282;48.358;10.958;2022-11-15T01:07:14;96078.66;;;5.78
6498;BMP280;3282;48.358;10.958;2022-11-15T01:09:59;96073.22;;;5.75
6498;BMP280;3282;48.358;10.958;2022-11-15T01:12:45;96074.81;;;5.76
6498;BMP280;3282;48.358;10.958;2022-11-15T01:15:30;96061.31;;;5.68
6498;BMP280;3282;48.358;10.958;2022-11-15T01:18:14;96063.19;;;5.68
6498;BMP280;3282;48.358;10.958;2022-11-15T01:21:04;96070.81;;;5.69
6498;BMP280;3282;48.358;10.958;2022-11-15T01:23:53;96067.06;;;5.70
6498;BMP280;3282;48.358;10.958;2022-11-15T01:26:38;96073.47;;;5.69
6498;BMP280;3282;48.358;10.958;2022-11-15T01:29:24;96066.94;;;5.67
6498;BMP280;3282;48.358;10.958;2022-11-15T01:32:08;96057.50;;;5.57
6498;BMP280;3282;48.358;10.958;2022-11-15T01:34:54;96073.19;;;5.62
6498;BMP280;3282;48.358;10.958;2022-11-15T01:37:38;96076.50;;;5.59
6498;BMP280;3282;48.358;10.958;2022-11-15T01:40:23;96065.53;;;5.48
6498;BMP280;3282;48.358;10.958;2022-11-15T01:43:19;96072.50;;;5.53
6498;BMP280;3282;48.358;10.958;2022-11-15T01:46:27;96080.00;;;5.51
6498;BMP280;3282;48.358;10.958;2022-11-15T01:49:17;96069.91;;;5.44
6498;BMP280;3282;48.358;10.958;2022-11-15T01:52:05;96062.63;;;5.41
6498;BMP280;3282;48.358;10.958;2022-11-15T01:55:19;96061.25;;;5.34
6498;BMP280;3282;48.358;10.958;2022-11-15T01:58:05;96060.66;;;5.29
6498;BMP280;3282;48.358;10.958;2022-11-15T02:00:51;96055.69;;;5.27
6498;BMP280;3282;48.358;10.958;2022-11-15T02:03:47;96052.88;;;5.24
6498;BMP280;3282;48.358;10.958;2022-11-15T02:06:34;96039.72;;;5.15
6498;BMP280;3282;48.358;10.958;2022-11-15T02:09:20;96038.47;;;5.12
6498;BMP280;3282;48.358;10.958;2022-11-15T02:12:06;96054.03;;;5.23
6498;BMP280;3282;48.358;10.958;2022-11-15T02:14:54;96047.81;;;5.18
6498;BMP280;3282;48.358;10.958;2022-11-15T02:18:09;96040.03;;;5.13
6498;BMP280;3282;48.358;10.958;2022-11-15T02:21:10;96036.47;;;5.09
6498;BMP280;3282;48.358;10.958;2022-11-15T02:24:11;96033.34;;;5.07
6498;BMP280;3282;48.358;10.958;2022-11-15T02:27:16;96027.06;;;4.99
6498;BMP280;3282;48.358;10.958;2022-11-15T02:36:49;96024.88;;;4.92
6498;BMP280;3282;48.358;10.958;2022-11-15T02:39:59;96010.91;;;4.83
6498;BMP280;3282;48.358;10.958;2022-11-15T02:42:55;96006.72;;;4.82
6498;BMP280;3282;48.358;10.958;2022-11-15T02:46:14;96009.84;;;4.84
6498;BMP280;3282;48.358;10.958;2022-11-15T02:48:59;95999.56;;;4.82
6498;BMP280;3282;48.358;10.958;2022-11-15T02:51:47;95996.44;;;4.80
6498;BMP280;3282;48.358;10.958;2022-11-15T02:54:33;95997.09;;;4.77
6498;BMP280;3282;48.358;10.958;2022-11-15T02:57:28;95983.38;;;4.75
6498;BMP280;3282;48.358;10.958;2022-11-15T03:00:18;95975.75;;;4.74
6498;BMP280;3282;48.358;10.958;2022-11-15T03:03:40;95966.00;;;4.65
6498;BMP280;3282;48.358;10.958;2022-11-15T03:09:40;95956.69;;;4.59
6498;BMP280;3282;48.358;10.958;2022-11-15T03:12:30;95968.97;;;4.64
6498;BMP280;3282;48.358;10.958;2022-11-15T03:15:29;95980.03;;;4.66
6498;BMP280;3282;48.358;10.958;2022-11-15T03:18:27;95965.00;;;4.48
6498;BMP280;3282;48.358;10.958;2022-11-15T03:21:15;95957.88;;;4.40
6498;BMP280;3282;48.358;10.958;2022-11-15T03:24:03;95976.03;;;4.51
6498;BMP280;3282;48.358;10.958;2022-11-15T03:26:50;95977.13;;;4.50
6498;BMP280;3282;48.358;10.958;2022-11-15T03:29:39;95968.88;;;4.51
6498;BMP280;3282;48.358;10.958;2022-11-15T03:32:29;95971.53;;;4.51
6498;BMP280;3282;48.358;10.958;2022-11-15T03:35:21;95971.84;;;4.50
6498;BMP280;3282;48.358;10.958;2022-11-15T03:40:59;95967.19;;;4.46
6498;BMP280;3282;48.358;10.958;2022-11-15T03:43:57;95969.53;;;4.48
6498;BMP280;3282;48.358;10.958;2022-11-15T03:46:57;95954.44;;;4.40
6498;BMP280;3282;48.358;10.958;2022-11-15T03:49:50;95965.38;;;4.38
6498;BMP280;3282;48.358;10.958;2022-11-15T03:52:37;95958.53;;;4.37
6498;BMP280;3282;48.358;10.958;2022-11-15T03:55:22;95964.44;;;4.34
6498;BMP280;3282;48.358;10.958;2022-11-15T03:58:07;95961.59;;;4.39
6498;BMP280;3282;48.358;10.958;2022-11-15T04:00:52;95961.59;;;4.39
6498;BMP280;3282;48.358;10.958;2022-11-15T04:03:38;95960.84;;;4.39
6498;BMP280;3282;48.358;10.958;2022-11-15T04:06:23;95956.31;;;4.39
6498;BMP280;3282;48.358;10.958;2022-11-15T04:09:08;95958.06;;;4.35
6498;BMP280;3282;48.358;10.958;2022-11-15T04:11:53;95954.63;;;4.34
6498;BMP280;3282;48.358;10.958;2022-11-15T04:14:38;95933.94;;;4.28
6498;BMP280;3282;48.358;10.958;2022-11-15T04:17:48;95947.00;;;4.33
6498;BMP280;3282;48.358;10.958;2022-11-15T04:20:34;95937.69;;;4.27
6498;BMP280;3282;48.358;10.958;2022-11-15T04:23:37;95938.03;;;4.25
6498;BMP280;3282;48.358;10.958;2022-11-15T04:26:38;95933.38;;;4.22
6498;BMP280;3282;48.358;10.958;2022-11-15T04:29:23;95934.78;;;4.19
6498;BMP280;3282;48.358;10.958;2022-11-15T04:32:20;95937.41;;;4.19
6498;BMP280;3282;48.358;10.958;2022-11-15T04:35:05;95936.00;;;4.22
6498;BMP280;3282;48.358;10.958;2022-11-15T04:37:50;95931.50;;;4.22
6498;BMP280;3282;48.358;10.958;2022-11-15T04:40:36;95931.50;;;4.22
6498;BMP280;3282;48.358;10.958;2022-11-15T04:43:22;95935.69;;;4.23
6498;BMP280;3282;48.358;10.958;2022-11-15T04:46:07;95926.81;;;4.19
6498;BMP280;3282;48.358;10.958;2022-11-15T04:48:53;95932.13;;;4.19
6498;BMP280;3282;48.358;10.958;2022-11-15T04:51:44;95921.72;;;4.14
6498;BMP280;3282;48.358;10.958;2022-11-15T04:54:29;95918.13;;;4.10
6498;BMP280;3282;48.358;10.958;2022-11-15T04:57:14;95911.19;;;4.05
6498;BMP280;3282;48.358;10.958;2022-11-15T05:00:00;95896.72;;;3.94
6498;BMP280;3282;48.358;10.958;2022-11-15T05:02:45;95910.72;;;4.03
6498;BMP280;3282;48.358;10.958;2022-11-15T05:05:49;95909.94;;;4.03
6498;BMP280;3282;48.358;10.958;2022-11-15T05:08:34;95912.16;;;4.01
6498;BMP280;3282;48.358;10.958;2022-11-15T05:11:19;95836.22;;;3.53
6498;BMP280;3282;48.358;10.958;2022-11-15T05:14:05;95890.97;;;3.92
6498;BMP280;3282;48.358;10.958;2022-11-15T05:16:50;95896.56;;;3.99
6498;BMP280;3282;48.358;10.958;2022-11-15T05:19:35;95901.56;;;4.01
6498;BMP280;3282;48.358;10.958;2022-11-15T05:22:20;95907.47;;;3.97
6498;BMP280;3282;48.358;10.958;2022-11-15T05:25:06;95904.81;;;3.97
6498;BMP280;3282;48.358;10.958;2022-11-15T05:27:51;95886.00;;;3.90
6498;BMP280;3282;48.358;10.958;2022-11-15T05:30:36;95891.75;;;3.92
6498;BMP280;3282;48.358;10.958;2022-11-15T05:33:23;95892.41;;;3.89
6498;BMP280;3282;48.358;10.958;2022-11-15T05:39:18;95889.28;;;3.87
6498;BMP280;3282;48.358;10.958;2022-11-15T05:42:08;95880.56;;;3.86
6498;BMP280;3282;48.358;10.958;2022-11-15T05:44:54;95886.66;;;3.87
6498;BMP280;3282;48.358;10.958;2022-11-15T05:47:40;95884.00;;;3.87
6498;BMP280;3282;48.358;10.958;2022-11-15T05:50:25;95867.22;;;3.83
6498;BMP280;3282;48.358;10.958;2022-11-15T05:53:13;95856.22;;;3.72
6498;BMP280;3282;48.358;10.958;2022-11-15T05:55:59;95882.44;;;3.86
6498;BMP280;3282;48.358;10.958;2022-11-15T05:58:44;95841.31;;;3.58
6498;BMP280;3282;48.358;10.958;2022-11-15T06:01:29;95873.16;;;3.80
6498;BMP280;3282;48.358;10.958;2022-11-15T06:04:15;95872.22;;;3.76
6498;BMP280;3282;48.358;10.958;2022-11-15T06:07:00;95872.56;;;3.74
6498;BMP280;3282;48.358;10.958;2022-11-15T06:09:45;95862.94;;;3.69
6498;BMP280;3282;48.358;10.958;2022-11-15T06:12:30;95844.78;;;3.50
6498;BMP280;3282;48.358;10.958;2022-11-15T06:15:15;95871.94;;;3.68
6498;BMP280;3282;48.358;10.958;2022-11-15T06:18:00;95876.59;;;3.71
6498;BMP280;3282;48.358;10.958;2022-11-15T06:20:45;95883.44;;;3.72
6498;BMP280;3282;48.358;10.958;2022-11-15T06:23:34;95873.34;;;3.66
6498;BMP280;3282;48.358;10.958;2022-11-15T06:26:19;95870.22;;;3.72
6498;BMP280;3282;48.358;10.958;2022-11-15T06:29:05;95871.75;;;3.73
6498;BMP280;3282;48.358;10.958;2022-11-15T06:31:50;95889.81;;;3.80
6498;BMP280;3282;48.358;10.958;2022-11-15T06:34:35;95894.31;;;3.80
6498;BMP280;3282;48.358;10.958;2022-11-15T06:37:20;95897.44;;;3.82
6498;BMP280;3282;48.358;10.958;2022-11-15T06:40:07;95892.13;;;3.82
6498;BMP280;3282;48.358;10.958;2022-11-15T06:42:57;95895.88;;;3.81
6498;BMP280;3282;48.358;10.958;2022-11-15T06:45:43;95888.88;;;3.76
6498;BMP280;3282;48.358;10.958;2022-11-15T06:48:28;95897.28;;;3.78
6498;BMP280;3282;48.358;10.958;2022-11-15T06:51:14;95904.91;;;3.80
6498;BMP280;3282;48.358;10.958;2022-11-15T06:53:59;95837.19;;;3.40
6498;BMP280;3282;48.358;10.958;2022-11-15T06:56:44;95904.69;;;3.85
6498;BMP280;3282;48.358;10.958;2022-11-15T06:59:29;95901.28;;;3.84
6498;BMP280;3282;48.358;10.958;2022-11-15T07:02:14;95899.69;;;3.92
6498;BMP280;3282;48.358;10.958;2022-11-15T07:04:59;95890.84;;;3.88
6498;BMP280;3282;48.358;10.958;2022-11-15T07:07:50;95894.22;;;3.97
6498;BMP280;3282;48.358;10.958;2022-11-15T07:10:36;95893.63;;;4.01
6498;BMP280;3282;48.358;10.958;2022-11-15T07:13:24;95881.66;;;3.94
6498;BMP280;3282;48.358;10.958;2022-11-15T07:16:10;95895.41;;;4.09
6498;BMP280;3282;48.358;10.958;2022-11-15T07:18:55;95898.22;;;4.13
6498;BMP280;3282;48.358;10.958;2022-11-15T07:21:40;95896.03;;;4.15
6498;BMP280;3282;48.358;10.958;2022-11-15T07:24:26;95882.78;;;4.15
6498;BMP280;3282;48.358;10.958;2022-11-15T07:27:11;95883.06;;;4.22
6498;BMP280;3282;48.358;10.958;2022-11-15T07:29:56;95874.09;;;4.57
6498;BMP280;3282;48.358;10.958;2022-11-15T07:32:41;95878.78;;;4.94
6498;BMP280;3282;48.358;10.958;2022-11-15T07:35:27;95870.19;;;4.97
6498;BMP280;3282;48.358;10.958;2022-11-15T07:38:12;95866.31;;;4.94
6498;BMP280;3282;48.358;10.958;2022-11-15T07:41:03;95868.03;;;4.90
6498;BMP280;3282;48.358;10.958;2022-11-15T07:43:51;95866.06;;;4.87
6498;BMP280;3282;48.358;10.958;2022-11-15T07:46:36;95866.06;;;4.87
6498;BMP280;3282;48.358;10.958;2022-11-15T07:49:21;95866.06;;;4.87
6498;BMP280;3282;48.358;10.958;2022-11-15T07:52:06;95863.44;;;4.87
6498;BMP280;3282;48.358;10.958;2022-11-15T07:54:51;95865.28;;;4.87
6498;BMP280;3282;48.358;10.958;2022-11-15T07:57:36;95863.81;;;4.77
6498;BMP280;3282;48.358;10.958;2022-11-15T08:00:21;95869.84;;;4.86
6498;BMP280;3282;48.358;10.958;2022-11-15T08:03:09;95859.88;;;4.83
6498;BMP280;3282;48.358;10.958;2022-11-15T08:05:54;95854.16;;;4.93
6498;BMP280;3282;48.358;10.958;2022-11-15T08:08:39;95848.66;;;4.99
6498;BMP280;3282;48.358;10.958;2022-11-15T08:11:24;95848.22;;;5.09
6498;BMP280;3282;48.358;10.958;2022-11-15T08:14:10;95837.09;;;5.16
6498;BMP280;3282;48.358;10.958;2022-11-15T08:16:55;95821.97;;;5.16
6498;BMP280;3282;48.358;10.958;2022-11-15T08:19:40;95810.06;;;5.23
6498;BMP280;3282;48.358;10.958;2022-11-15T08:22:25;95820.00;;;5.38
6498;BMP280;3282;48.358;10.958;2022-11-15T08:25:10;95822.13;;;5.45
6498;BMP280;3282;48.358;10.958;2022-11-15T08:27:58;95818.25;;;5.55
6498;BMP280;3282;48.358;10.958;2022-11-15T08:30:43;95810.50;;;5.62
6498;BMP280;3282;48.358;10.958;2022-11-15T08:33:31;95821.22;;;5.78
6498;BMP280;3282;48.358;10.958;2022-11-15T08:36:17;95819.28;;;6.16
6498;BMP280;3282;48.358;10.958;2022-11-15T08:39:02;95812.13;;;6.45
6498;BMP280;3282;48.358;10.958;2022-11-15T08:41:47;95812.97;;;6.78
6498;BMP280;3282;48.358;10.958;2022-11-15T08:44:32;95818.06;;;7.00
6498;BMP280;3282;48.358;10.958;2022-11-15T08:47:17;95807.41;;;7.16
6498;BMP280;3282;48.358;10.958;2022-11-15T08:50:02;95809.59;;;7.26
6498;BMP280;3282;48.358;10.958;2022-11-15T08:52:48;95802.38;;;7.27
6498;BMP280;3282;48.358;10.958;2022-11-15T08:55:36;95761.78;;;6.98
6498;BMP280;3282;48.358;10.958;2022-11-15T08:58:21;95801.41;;;7.35
6498;BMP280;3282;48.358;10.958;2022-11-15T09:01:14;95797.81;;;7.43
6498;BMP280;3282;48.358;10.958;2022-11-15T09:04:03;95796.09;;;7.51
6498;BMP280;3282;48.358;10.958;2022-11-15T09:06:48;95797.50;;;7.65
6498;BMP280;3282;48.358;10.958;2022-11-15T09:09:34;95798.50;;;7.76
6498;BMP280;3282;48.358;10.958;2022-11-15T09:12:19;95802.69;;;7.77
6498;BMP280;3282;48.358;10.958;2022-11-15T09:15:05;95796.44;;;7.86
6498;BMP280;3282;48.358;10.958;2022-11-15T09:17:50;95790.22;;;7.98
6498;BMP280;3282;48.358;10.958;2022-11-15T09:20:35;95803.41;;;8.10
6498;BMP280;3282;48.358;10.958;2022-11-15T09:23:21;95804.53;;;8.29
6498;BMP280;3282;48.358;10.958;2022-11-15T09:26:06;95804.22;;;8.34
6498;BMP280;3282;48.358;10.958;2022-11-15T09:28:51;95805.97;;;8.46
6498;BMP280;3282;48.358;10.958;2022-11-15T09:31:36;95798.59;;;8.59
6498;BMP280;3282;48.358;10.958;2022-11-15T09:34:22;95795.13;;;8.78
6498;BMP280;3282;48.358;10.958;2022-11-15T09:37:07;95789.00;;;9.01
6498;BMP280;3282;48.358;10.958;2022-11-15T09:39:52;95765.69;;;9.22
6498;BMP280;3282;48.358;10.958;2022-11-15T09:45:36;95781.03;;;9.86
6498;BMP280;3282;48.358;10.958;2022-11-15T09:48:54;95778.66;;;10.12
6498;BMP280;3282;48.358;10.958;2022-11-15T09:51:53;95764.81;;;10.40
6498;BMP280;3282;48.358;10.958;2022-11-15T09:54:25;95763.88;;;10.60
6498;BMP280;3282;48.358;10.958;2022-11-15T09:57:18;95759.41;;;10.75
6498;BMP280;3282;48.358;10.958;2022-11-15T10:00:16;95753.75;;;10.83
6498;BMP280;3282;48.358;10.958;2022-11-15T10:03:31;95746.53;;;10.91
6498;BMP280;3282;48.358;10.958;2022-11-15T10:06:01;95745.06;;;11.01
6498;BMP280;3282;48.358;10.958;2022-11-15T10:11:35;95732.28;;;11.36
6498;BMP280;3282;48.358;10.958;2022-11-15T10:14:13;95721.22;;;11.45
6498;BMP280;3282;48.358;10.958;2022-11-15T10:24:25;95706.91;;;12.26
6498;BMP280;3282;48.358;10.958;2022-11-15T10:26:54;95706.13;;;12.33
6498;BMP280;3282;48.358;10.958;2022-11-15T10:29:23;95698.88;;;12.52
6498;BMP280;3282;48.358;10.958;2022-11-15T10:31:52;95693.09;;;12.71
6498;BMP280;3282;48.358;10.958;2022-11-15T10:34:22;95693.44;;;12.99
6498;BMP280;3282;48.358;10.958;2022-11-15T10:36:59;95696.81;;;13.21
6498;BMP280;3282;48.358;10.958;2022-11-15T10:39:28;95689.44;;;13.40
6498;BMP280;3282;48.358;10.958;2022-11-15T10:41:55;95686.28;;;13.60
6498;BMP280;3282;48.358;10.958;2022-11-15T10:44:24;95676.63;;;13.73
6498;BMP280;3282;48.358;10.958;2022-11-15T10:49:28;95677.25;;;13.99
6498;BMP280;3282;48.358;10.958;2022-11-15T10:52:01;95668.78;;;14.01
6498;BMP280;3282;48.358;10.958;2022-11-15T10:54:43;95670.44;;;13.76
6498;BMP280;3282;48.358;10.958;2022-11-15T10:57:14;95643.91;;;13.86
6498;BMP280;3282;48.358;10.958;2022-11-15T10:59:46;95639.53;;;14.07
6498;BMP280;3282;48.358;10.958;2022-11-15T11:04:59;95646.84;;;14.06
6498;BMP280;3282;48.358;10.958;2022-11-15T11:07:29;95638.44;;;13.97
6498;BMP280;3282;48.358;10.958;2022-11-15T11:13:25;95633.50;;;14.41
6498;BMP280;3282;48.358;10.958;2022-11-15T11:16:17;95627.28;;;14.44
6498;BMP280;3282;48.358;10.958;2022-11-15T11:19:02;95627.22;;;14.51
6498;BMP280;3282;48.358;10.958;2022-11-15T11:26:55;95619.53;;;14.88
6498;BMP280;3282;48.358;10.958;2022-11-15T11:29:49;95618.34;;;14.89
6498;BMP280;3282;48.358;10.958;2022-11-15T11:32:38;95618.66;;;14.95
6498;BMP280;3282;48.358;10.958;2022-11-15T11:35:19;95621.16;;;15.10
6498;BMP280;3282;48.358;10.958;2022-11-15T11:37:51;95618.66;;;15.26
6498;BMP280;3282;48.358;10.958;2022-11-15T11:49:12;95602.91;;;15.52
6498;BMP280;3282;48.358;10.958;2022-11-15T11:51:45;95582.84;;;15.53
6498;BMP280;3282;48.358;10.958;2022-11-15T11:54:34;95584.69;;;15.60
6498;BMP280;3282;48.358;10.958;2022-11-15T11:57:12;95578.00;;;15.44
6498;BMP280;3282;48.358;10.958;2022-11-15T12:00:00;95585.31;;;15.44
6498;BMP280;3282;48.358;10.958;2022-11-15T12:02:44;95585.00;;;15.11
6498;BMP280;3282;48.358;10.958;2022-11-15T12:05:22;95588.91;;;15.06
6498;BMP280;3282;48.358;10.958;2022-11-15T12:08:01;95580.25;;;15.18
6498;BMP280;3282;48.358;10.958;2022-11-15T12:10:31;95576.78;;;15.22
6498;BMP280;3282;48.358;10.958;2022-11-15T12:13:04;95585.88;;;15.31
6498;BMP280;3282;48.358;10.958;2022-11-15T12:15:41;95570.50;;;15.28
6498;BMP280;3282;48.358;10.958;2022-11-15T12:21:32;95588.56;;;15.83
6498;BMP280;3282;48.358;10.958;2022-11-15T12:24:06;95588.28;;;15.77
6498;BMP280;3282;48.358;10.958;2022-11-15T12:26:41;95586.38;;;15.74
6498;BMP280;3282;48.358;10.958;2022-11-15T12:29:33;95506.31;;;15.23
6498;BMP280;3282;48.358;10.958;2022-11-15T12:32:02;95588.91;;;15.61
6498;BMP280;3282;48.358;10.958;2022-11-15T12:34:39;95571.84;;;15.44
6498;BMP280;3282;48.358;10.958;2022-11-15T12:42:41;95583.06;;;15.39
6498;BMP280;3282;48.358;10.958;2022-11-15T12:47:53;95577.72;;;15.08
6498;BMP280;3282;48.358;10.958;2022-11-15T12:50:52;95565.16;;;14.97
6498;BMP280;3282;48.358;10.958;2022-11-15T12:58:46;95561.75;;;14.93
6498;BMP280;3282;48.358;10.958;2022-11-15T13:07:00;95558.75;;;14.52
6498;BMP280;3282;48.358;10.958;2022-11-15T13:12:10;95544.81;;;14.26
6498;BMP280;3282;48.358;10.958;2022-11-15T13:14:52;95565.47;;;14.37
6498;BMP280;3282;48.358;10.958;2022-11-15T13:19:48;95566.78;;;14.21
6498;BMP280;3282;48.358;10.958;2022-11-15T13:22:14;95556.41;;;14.16
6498;BMP280;3282;48.358;10.958;2022-11-15T13:25:03;95560.78;;;14.06
6498;BMP280;3282;48.358;10.958;2022-11-15T13:27:30;95556.59;;;13.98
6498;BMP280;3282;48.358;10.958;2022-11-15T13:30:12;95558.53;;;13.97
6498;BMP280;3282;48.358;10.958;2022-11-15T13:32:39;95549.38;;;13.91
6498;BMP280;3282;48.358;10.958;2022-11-15T13:35:06;95561.28;;;13.90
6498;BMP280;3282;48.358;10.958;2022-11-15T13:37:33;95547.94;;;13.79
6498;BMP280;3282;48.358;10.958;2022-11-15T13:42:50;95569.84;;;13.78
6498;BMP280;3282;48.358;10.958;2022-11-15T13:45:18;95561.03;;;13.73
6498;BMP280;3282;48.358;10.958;2022-11-15T13:47:51;95564.50;;;13.70
6498;BMP280;3282;48.358;10.958;2022-11-15T13:50:20;95558.00;;;13.68
6498;BMP280;3282;48.358;10.958;2022-11-15T13:52:48;95549.19;;;13.63
6498;BMP280;3282;48.358;10.958;2022-11-15T13:55:18;95553.06;;;13.62
6498;BMP280;3282;48.358;10.958;2022-11-15T13:57:48;95548.47;;;13.59
6498;BMP280;3282;48.358;10.958;2022-11-15T14:00:29;95561.19;;;13.55
6498;BMP280;3282;48.358;10.958;2022-11-15T14:02:57;95540.16;;;13.43
6498;BMP280;3282;48.358;10.958;2022-11-15T14:05:31;95549.31;;;13.45
6498;BMP280;3282;48.358;10.958;2022-11-15T14:08:22;95540.97;;;13.36
6498;BMP280;3282;48.358;10.958;2022-11-15T14:11:08;95539.47;;;13.28
6498;BMP280;3282;48.358;10.958;2022-11-15T14:13:35;95542.94;;;13.24
6498;BMP280;3282;48.358;10.958;2022-11-15T14:16:20;95527.69;;;13.07
6498;BMP280;3282;48.358;10.958;2022-11-15T14:18:52;95538.41;;;13.10
6498;BMP280;3282;48.358;10.958;2022-11-15T14:21:19;95527.34;;;13.01
6498;BMP280;3282;48.358;10.958;2022-11-15T14:23:46;95540.75;;;12.97
6498;BMP280;3282;48.358;10.958;2022-11-15T14:26:31;95532.06;;;12.79
6498;BMP280;3282;48.358;10.958;2022-11-15T14:29:27;95548.13;;;12.82
6498;BMP280;3282;48.358;10.958;2022-11-15T14:32:12;95544.69;;;12.78
6498;BMP280;3282;48.358;10.958;2022-11-15T14:34:38;95547.81;;;12.73
6498;BMP280;3282;48.358;10.958;2022-11-15T14:37:51;95551.25;;;12.73
6498;BMP280;3282;48.358;10.958;2022-11-15T14:40:02;95531.34;;;12.64
6498;BMP280;3282;48.358;10.958;2022-11-15T14:42:29;95528.28;;;12.65
6498;BMP280;3282;48.358;10.958;2022-11-15T14:44:55;95534.81;;;12.64
6498;BMP280;3282;48.358;10.958;2022-11-15T14:47:22;95538.25;;;12.57
6498;BMP280;3282;48.358;10.958;2022-11-15T14:49:48;95532.53;;;12.55
6498;BMP280;3282;48.358;10.958;2022-11-15T14:52:28;95518.72;;;12.53
6498;BMP280;3282;48.358;10.958;2022-11-15T14:54:59;95514.91;;;12.51
6498;BMP280;3282;48.358;10.958;2022-11-15T14:57:28;95498.84;;;12.43
6498;BMP280;3282;48.358;10.958;2022-11-15T14:59:55;95504.97;;;12.40
6498;BMP280;3282;48.358;10.958;2022-11-15T15:02:37;95494.25;;;12.33
6498;BMP280;3282;48.358;10.958;2022-11-15T15:05:14;95506.91;;;12.36
6498;BMP280;3282;48.358;10.958;2022-11-15T15:07:41;95500.41;;;12.33
6498;BMP280;3282;48.358;10.958;2022-11-15T15:10:08;95488.16;;;12.21
6498;BMP280;3282;48.358;10.958;2022-11-15T15:12:54;95503.47;;;12.25
6498;BMP280;3282;48.358;10.958;2022-11-15T15:15:26;95495.81;;;12.19
6498;BMP280;3282;48.358;10.958;2022-11-15T15:17:55;95482.81;;;12.14
6498;BMP280;3282;48.358;10.958;2022-11-15T15:20:22;95484.38;;;12.12
6498;BMP280;3282;48.358;10.958;2022-11-15T15:22:48;95481.66;;;12.19
6498;BMP280;3282;48.358;10.958;2022-11-15T15:25:32;95479.72;;;12.16
6498;BMP280;3282;48.358;10.958;2022-11-15T15:27:59;95489.72;;;12.15
6498;BMP280;3282;48.358;10.958;2022-11-15T15:30:28;95482.06;;;12.06
6498;BMP280;3282;48.358;10.958;2022-11-15T15:32:55;95487.81;;;11.97
6498;BMP280;3282;48.358;10.958;2022-11-15T15:35:29;95478.28;;;11.89
6498;BMP280;3282;48.358;10.958;2022-11-15T15:37:56;95479.03;;;11.82
6498;BMP280;3282;48.358;10.958;2022-11-15T15:40:24;95470.25;;;11.75
6498;BMP280;3282;48.358;10.958;2022-11-15T15:42:51;95472.53;;;11.65
6498;BMP280;3282;48.358;10.958;2022-11-15T15:45:18;95467.97;;;11.58
6498;BMP280;3282;48.358;10.958;2022-11-15T15:47:45;95475.22;;;11.51
6498;BMP280;3282;48.358;10.958;2022-11-15T15:50:33;95476.75;;;11.44
6498;BMP280;3282;48.358;10.958;2022-11-15T15:53:01;95463.34;;;11.33
6498;BMP280;3282;48.358;10.958;2022-11-15T15:55:28;95464.50;;;11.36
6498;BMP280;3282;48.358;10.958;2022-11-15T15:57:55;95460.66;;;11.33
6498;BMP280;3282;48.358;10.958;2022-11-15T16:00:23;95461.41;;;11.30
6498;BMP280;3282;48.358;10.958;2022-11-15T16:02:51;95462.94;;;11.28
6498;BMP280;3282;48.358;10.958;2022-11-15T16:05:18;95459.91;;;11.26
6498;BMP280;3282;48.358;10.958;2022-11-15T16:07:45;95458.75;;;11.23
6498;BMP280;3282;48.358;10.958;2022-11-15T16:12:43;95455.69;;;11.17
6498;BMP280;3282;48.358;10.958;2022-11-15T16:15:09;95447.66;;;11.14
6498;BMP280;3282;48.358;10.958;2022-11-15T16:17:45;95446.13;;;11.13
6498;BMP280;3282;48.358;10.958;2022-11-15T16:20:38;95446.50;;;11.11
6498;BMP280;3282;48.358;10.958;2022-11-15T16:23:08;95419.34;;;11.02
6498;BMP280;3282;48.358;10.958;2022-11-15T16:25:51;95432.34;;;11.07
6498;BMP280;3282;48.358;10.958;2022-11-15T16:28:26;95438.47;;;11.04
6498;BMP280;3282;48.358;10.958;2022-11-15T16:31:08;95425.41;;;10.99
6498;BMP280;3282;48.358;10.958;2022-11-15T16:33:35;95409.75;;;10.86
6498;BMP280;3282;48.358;10.958;2022-11-15T16:36:04;95428.50;;;10.93
6498;BMP280;3282;48.358;10.958;2022-11-15T16:38:32;95423.88;;;10.90
6498;BMP280;3282;48.358;10.958;2022-11-15T16:40:58;95423.53;;;10.88
6498;BMP280;3282;48.358;10.958;2022-11-15T16:43:25;95394.03;;;10.74
6498;BMP280;3282;48.358;10.958;2022-11-15T16:45:51;95410.13;;;10.85
6498;BMP280;3282;48.358;10.958;2022-11-15T16:48:27;95398.63;;;10.80
6498;BMP280;3282;48.358;10.958;2022-11-15T16:50:55;95409.75;;;10.79
6498;BMP280;3282;48.358;10.958;2022-11-15T16:53:23;95387.16;;;10.62
6498;BMP280;3282;48.358;10.958;2022-11-15T16:55:50;95413.16;;;10.76
6498;BMP280;3282;48.358;10.958;2022-11-15T16:58:16;95408.97;;;10.75
6498;BMP280;3282;48.358;10.958;2022-11-15T17:00:43;95400.53;;;10.73
6498;BMP280;3282;48.358;10.958;2022-11-15T17:03:10;95400.94;;;10.71
6498;BMP280;3282;48.358;10.958;2022-11-15T17:05:37;95394.44;;;10.68
6498;BMP280;3282;48.358;10.958;2022-11-15T17:08:03;95399.78;;;10.68
6498;BMP280;3282;48.358;10.958;2022-11-15T17:10:30;95392.50;;;10.65
6498;BMP280;3282;48.358;10.958;2022-11-15T17:12:56;95390.19;;;10.64
6498;BMP280;3282;48.358;10.958;2022-11-15T17:15:23;95391.34;;;10.59
6498;BMP280;3282;48.358;10.958;2022-11-15T17:17:51;95390.19;;;10.60
6498;BMP280;3282;48.358;10.958;2022-11-15T17:20:20;95381.03;;;10.57